sensor_id;sensor_type;location;lat;lon;timestamp;P1;durP1;ratioP1;P2;durP2;ratioP2
75941;SDS011;64622;46.220;19.878;2023-10-31T00:02:12;11.38;;;3.92;;
75941;SDS011;64622;46.220;19.878;2023-10-31T00:04:39;11.57;;;3.87;;
75941;SDS011;64622;46.220;19.878;2023-10-31T00:07:05;9.30;;;3.22;;
75941;SDS011;64622;46.220;19.878;2023-10-31T00:09:32;8.77;;;3.78;;
75941;SDS011;64622;46.220;19.878;2023-10-31T00:11:59;11.30;;;3.62;;
75941;SDS011;64622;46.220;19.878;2023-10-31T00:14:26;9.77;;;3.72;;
75941;SDS011;64622;46.220;19.878;2023-10-31T00:16:53;8.77;;;3.07;;
75941;SDS011;64622;46.220;19.878;2023-10-31T00:19:20;10.30;;;3.35;;
75941;SDS011;64622;46.220;19.878;2023-10-31T00:21:47;10.43;;;3.47;;
75941;SDS011;64622;46.220;19.878;2023-10-31T00:24:13;9.38;;;2.90;;
75941;SDS011;64622;46.220;19.878;2023-10-31T00:26:40;9.00;;;3.05;;
75941;SDS011;64622;46.220;19.878;2023-10-31T00:29:08;8.30;;;3.13;;
75941;SDS011;64622;46.220;19.878;2023-10-31T00:31:35;10.55;;;3.50;;
75941;SDS011;64622;46.220;19.878;2023-10-31T00:34:02;10.98;;;3.30;;
75941;SDS011;64622;46.220;19.878;2023-10-31T00:36:29;9.85;;;3.35;;
75941;SDS011;64622;46.220;19.878;2023-10-31T00:38:56;13.10;;;4.00;;
75941;SDS011;64622;46.220;19.878;2023-10-31T00:41:23;9.27;;;3.00;;
75941;SDS011;64622;46.220;19.878;2023-10-31T00:43:50;9.48;;;3.10;;
75941;SDS011;64622;46.220;19.878;2023-10-31T00:46:17;8.40;;;3.20;;
75941;SDS011;64622;46.220;19.878;2023-10-31T00:48:44;9.90;;;3.17;;
75941;SDS011;64622;46.220;19.878;2023-10-31T00:51:10;11.70;;;3.58;;
75941;SDS011;64622;46.220;19.878;2023-10-31T00:53:38;11.80;;;3.87;;
75941;SDS011;64622;46.220;19.878;2023-10-31T00:56:05;9.90;;;3.15;;
75941;SDS011;64622;46.220;19.878;2023-10-31T00:58:32;10.52;;;3.20;;
75941;SDS011;64622;46.220;19.878;2023-10-31T01:00:59;8.80;;;3.33;;
75941;SDS011;64622;46.220;19.878;2023-10-31T01:03:26;10.93;;;3.00;;
75941;SDS011;64622;46.220;19.878;2023-10-31T01:05:53;10.93;;;3.13;;
75941;SDS011;64622;46.220;19.878;2023-10-31T01:08:20;10.10;;;3.03;;
75941;SDS011;64622;46.220;19.878;2023-10-31T01:10:48;12.05;;;2.90;;
75941;SDS011;64622;46.220;19.878;2023-10-31T01:13:15;7.80;;;2.65;;
75941;SDS011;64622;46.220;19.878;2023-10-31T01:15:41;8.85;;;2.75;;
75941;SDS011;64622;46.220;19.878;2023-10-31T01:18:09;8.43;;;2.53;;
75941;SDS011;64622;46.220;19.878;2023-10-31T01:20:35;8.82;;;2.67;;
75941;SDS011;64622;46.220;19.878;2023-10-31T01:23:03;8.85;;;2.87;;
75941;SDS011;64622;46.220;19.878;2023-10-31T01:25:30;9.77;;;2.70;;
75941;SDS011;64622;46.220;19.878;2023-10-31T01:27:56;8.07;;;2.45;;
75941;SDS011;64622;46.220;19.878;2023-10-31T01:30:24;9.37;;;2.63;;
75941;SDS011;64622;46.220;19.878;2023-10-31T01:32:51;10.05;;;2.62;;
75941;SDS011;64622;46.220;19.878;2023-10-31T01:35:18;10.52;;;2.25;;
75941;SDS011;64622;46.220;19.878;2023-10-31T01:37:45;9.63;;;2.78;;
75941;SDS011;64622;46.220;19.878;2023-10-31T01:40:12;8.80;;;2.33;;
75941;SDS011;64622;46.220;19.878;2023-10-31T01:42:39;9.13;;;2.40;;
75941;SDS011;64622;46.220;19.878;2023-10-31T01:45:07;10.98;;;2.65;;
75941;SDS011;64622;46.220;19.878;2023-10-31T01:47:35;8.95;;;2.53;;
75941;SDS011;64622;46.220;19.878;2023-10-31T01:50:01;9.00;;;2.50;;
75941;SDS011;64622;46.220;19.878;2023-10-31T01:52:29;9.27;;;2.53;;
75941;SDS011;64622;46.220;19.878;2023-10-31T01:54:59;9.53;;;3.00;;
75941;SDS011;64622;46.220;19.878;2023-10-31T01:57:28;8.32;;;2.60;;
75941;SDS011;64622;46.220;19.878;2023-10-31T01:59:55;8.52;;;2.90;;
75941;SDS011;64622;46.220;19.878;2023-10-31T02:02:23;8.38;;;2.83;;
75941;SDS011;64622;46.220;19.878;2023-10-31T02:04:51;8.60;;;2.17;;
75941;SDS011;64622;46.220;19.878;2023-10-31T02:07:18;13.27;;;2.23;;
75941;SDS011;64622;46.220;19.878;2023-10-31T02:09:45;8.43;;;2.40;;
75941;SDS011;64622;46.220;19.878;2023-10-31T02:12:30;11.23;;;2.75;;
75941;SDS011;64622;46.220;19.878;2023-10-31T02:15:03;9.38;;;2.10;;
75941;SDS011;64622;46.220;19.878;2023-10-31T02:17:31;9.25;;;1.85;;
75941;SDS011;64622;46.220;19.878;2023-10-31T02:19:58;9.43;;;2.67;;
75941;SDS011;64622;46.220;19.878;2023-10-31T02:22:25;8.88;;;2.20;;
75941;SDS011;64622;46.220;19.878;2023-10-31T02:24:51;9.70;;;2.42;;
75941;SDS011;64622;46.220;19.878;2023-10-31T02:27:19;8.40;;;2.15;;
75941;SDS011;64622;46.220;19.878;2023-10-31T02:29:46;8.43;;;2.30;;
75941;SDS011;64622;46.220;19.878;2023-10-31T02:32:12;9.07;;;2.20;;
75941;SDS011;64622;46.220;19.878;2023-10-31T02:34:39;11.20;;;3.00;;
75941;SDS011;64622;46.220;19.878;2023-10-31T02:37:06;10.88;;;2.37;;
75941;SDS011;64622;46.220;19.878;2023-10-31T02:39:33;7.80;;;2.33;;
75941;SDS011;64622;46.220;19.878;2023-10-31T02:42:00;7.78;;;2.60;;
75941;SDS011;64622;46.220;19.878;2023-10-31T02:44:27;9.67;;;2.20;;
75941;SDS011;64622;46.220;19.878;2023-10-31T02:46:54;8.68;;;2.30;;
75941;SDS011;64622;46.220;19.878;2023-10-31T02:49:22;7.28;;;1.90;;
75941;SDS011;64622;46.220;19.878;2023-10-31T02:51:48;9.20;;;2.17;;
75941;SDS011;64622;46.220;19.878;2023-10-31T02:54:16;7.95;;;2.35;;
75941;SDS011;64622;46.220;19.878;2023-10-31T02:56:43;6.13;;;1.90;;
75941;SDS011;64622;46.220;19.878;2023-10-31T02:59:10;8.93;;;2.47;;
75941;SDS011;64622;46.220;19.878;2023-10-31T03:01:37;8.05;;;2.65;;
75941;SDS011;64622;46.220;19.878;2023-10-31T03:04:04;9.35;;;2.50;;
75941;SDS011;64622;46.220;19.878;2023-10-31T03:06:31;8.88;;;2.53;;
75941;SDS011;64622;46.220;19.878;2023-10-31T03:08:58;8.40;;;2.60;;
75941;SDS011;64622;46.220;19.878;2023-10-31T03:11:26;10.27;;;2.47;;
75941;SDS011;64622;46.220;19.878;2023-10-31T03:13:53;10.02;;;2.75;;
75941;SDS011;64622;46.220;19.878;2023-10-31T03:16:20;9.45;;;3.10;;
75941;SDS011;64622;46.220;19.878;2023-10-31T03:18:48;7.55;;;2.40;;
75941;SDS011;64622;46.220;19.878;2023-10-31T03:21:15;8.67;;;2.23;;
75941;SDS011;64622;46.220;19.878;2023-10-31T03:23:46;8.10;;;2.37;;
75941;SDS011;64622;46.220;19.878;2023-10-31T03:26:16;7.30;;;2.28;;
75941;SDS011;64622;46.220;19.878;2023-10-31T03:28:43;8.05;;;2.12;;
75941;SDS011;64622;46.220;19.878;2023-10-31T03:31:11;9.38;;;2.45;;
75941;SDS011;64622;46.220;19.878;2023-10-31T03:33:39;11.23;;;1.80;;
75941;SDS011;64622;46.220;19.878;2023-10-31T03:36:06;6.97;;;1.87;;
75941;SDS011;64622;46.220;19.878;2023-10-31T03:38:34;7.20;;;2.12;;
75941;SDS011;64622;46.220;19.878;2023-10-31T03:41:02;7.78;;;2.33;;
75941;SDS011;64622;46.220;19.878;2023-10-31T03:43:29;6.57;;;2.12;;
75941;SDS011;64622;46.220;19.878;2023-10-31T03:45:56;9.17;;;2.20;;
75941;SDS011;64622;46.220;19.878;2023-10-31T03:48:23;8.18;;;2.33;;
75941;SDS011;64622;46.220;19.878;2023-10-31T03:50:50;9.65;;;2.25;;
75941;SDS011;64622;46.220;19.878;2023-10-31T03:53:16;6.37;;;1.62;;
75941;SDS011;64622;46.220;19.878;2023-10-31T03:55:44;8.70;;;2.37;;
75941;SDS011;64622;46.220;19.878;2023-10-31T03:58:11;9.17;;;2.30;;
75941;SDS011;64622;46.220;19.878;2023-10-31T04:00:41;10.25;;;2.80;;
75941;SDS011;64622;46.220;19.878;2023-10-31T04:03:08;7.57;;;2.28;;
75941;SDS011;64622;46.220;19.878;2023-10-31T04:05:34;9.20;;;2.28;;
75941;SDS011;64622;46.220;19.878;2023-10-31T04:08:02;5.90;;;1.85;;
75941;SDS011;64622;46.220;19.878;2023-10-31T04:10:29;8.70;;;1.73;;
75941;SDS011;64622;46.220;19.878;2023-10-31T04:12:57;10.18;;;2.40;;
75941;SDS011;64622;46.220;19.878;2023-10-31T04:15:24;9.77;;;2.60;;
75941;SDS011;64622;46.220;19.878;2023-10-31T04:17:51;8.48;;;2.25;;
75941;SDS011;64622;46.220;19.878;2023-10-31T04:20:18;9.70;;;1.92;;
75941;SDS011;64622;46.220;19.878;2023-10-31T04:22:45;8.37;;;2.13;;
75941;SDS011;64622;46.220;19.878;2023-10-31T04:25:12;7.12;;;2.30;;
75941;SDS011;64622;46.220;19.878;2023-10-31T04:27:39;6.12;;;1.77;;
75941;SDS011;64622;46.220;19.878;2023-10-31T04:30:05;10.43;;;2.20;;
75941;SDS011;64622;46.220;19.878;2023-10-31T04:32:33;9.60;;;2.50;;
75941;SDS011;64622;46.220;19.878;2023-10-31T04:35:00;10.53;;;1.90;;
75941;SDS011;64622;46.220;19.878;2023-10-31T04:37:26;7.45;;;2.00;;
75941;SDS011;64622;46.220;19.878;2023-10-31T04:39:54;9.00;;;2.35;;
75941;SDS011;64622;46.220;19.878;2023-10-31T04:42:20;7.85;;;2.30;;
75941;SDS011;64622;46.220;19.878;2023-10-31T04:44:48;10.05;;;2.10;;
75941;SDS011;64622;46.220;19.878;2023-10-31T04:47:15;7.70;;;1.80;;
75941;SDS011;64622;46.220;19.878;2023-10-31T04:49:42;8.02;;;1.90;;
75941;SDS011;64622;46.220;19.878;2023-10-31T04:52:09;7.62;;;1.98;;
75941;SDS011;64622;46.220;19.878;2023-10-31T04:54:36;8.50;;;1.67;;
75941;SDS011;64622;46.220;19.878;2023-10-31T04:57:03;6.53;;;1.83;;
75941;SDS011;64622;46.220;19.878;2023-10-31T04:59:30;7.43;;;1.83;;
75941;SDS011;64622;46.220;19.878;2023-10-31T05:01:57;6.22;;;1.77;;
75941;SDS011;64622;46.220;19.878;2023-10-31T05:04:24;7.15;;;1.87;;
75941;SDS011;64622;46.220;19.878;2023-10-31T05:06:51;8.10;;;1.75;;
75941;SDS011;64622;46.220;19.878;2023-10-31T05:09:18;7.70;;;1.70;;
75941;SDS011;64622;46.220;19.878;2023-10-31T05:11:46;6.43;;;2.00;;
75941;SDS011;64622;46.220;19.878;2023-10-31T05:14:13;6.57;;;2.03;;
75941;SDS011;64622;46.220;19.878;2023-10-31T05:16:43;9.93;;;2.20;;
75941;SDS011;64622;46.220;19.878;2023-10-31T05:19:10;7.97;;;2.17;;
75941;SDS011;64622;46.220;19.878;2023-10-31T05:21:37;9.15;;;2.15;;
75941;SDS011;64622;46.220;19.878;2023-10-31T05:24:05;9.63;;;2.77;;
75941;SDS011;64622;46.220;19.878;2023-10-31T05:26:32;7.65;;;2.17;;
75941;SDS011;64622;46.220;19.878;2023-10-31T05:28:58;8.80;;;2.40;;
75941;SDS011;64622;46.220;19.878;2023-10-31T05:31:25;9.77;;;2.67;;
75941;SDS011;64622;46.220;19.878;2023-10-31T05:33:52;11.40;;;2.70;;
75941;SDS011;64622;46.220;19.878;2023-10-31T05:36:19;14.03;;;4.10;;
75941;SDS011;64622;46.220;19.878;2023-10-31T05:38:51;14.43;;;3.87;;
75941;SDS011;64622;46.220;19.878;2023-10-31T05:41:18;13.82;;;4.05;;
75941;SDS011;64622;46.220;19.878;2023-10-31T05:43:45;15.18;;;3.42;;
75941;SDS011;64622;46.220;19.878;2023-10-31T05:46:12;9.48;;;2.45;;
75941;SDS011;64622;46.220;19.878;2023-10-31T05:48:42;9.10;;;2.40;;
75941;SDS011;64622;46.220;19.878;2023-10-31T05:51:13;7.15;;;2.00;;
75941;SDS011;64622;46.220;19.878;2023-10-31T05:53:41;10.02;;;2.35;;
75941;SDS011;64622;46.220;19.878;2023-10-31T05:56:09;7.37;;;2.00;;
75941;SDS011;64622;46.220;19.878;2023-10-31T05:58:38;7.32;;;2.17;;
75941;SDS011;64622;46.220;19.878;2023-10-31T06:01:06;8.93;;;2.23;;
75941;SDS011;64622;46.220;19.878;2023-10-31T06:03:34;8.73;;;2.20;;
75941;SDS011;64622;46.220;19.878;2023-10-31T06:06:01;6.37;;;1.90;;
75941;SDS011;64622;46.220;19.878;2023-10-31T06:08:28;7.35;;;1.77;;
75941;SDS011;64622;46.220;19.878;2023-10-31T06:10:56;7.90;;;2.08;;
75941;SDS011;64622;46.220;19.878;2023-10-31T06:13:23;10.77;;;2.50;;
75941;SDS011;64622;46.220;19.878;2023-10-31T06:15:55;8.32;;;1.85;;
75941;SDS011;64622;46.220;19.878;2023-10-31T06:18:24;9.07;;;2.10;;
75941;SDS011;64622;46.220;19.878;2023-10-31T06:20:50;7.25;;;1.80;;
75941;SDS011;64622;46.220;19.878;2023-10-31T06:23:17;10.05;;;2.50;;
75941;SDS011;64622;46.220;19.878;2023-10-31T06:25:45;6.73;;;2.03;;
75941;SDS011;64622;46.220;19.878;2023-10-31T06:28:11;7.93;;;2.53;;
75941;SDS011;64622;46.220;19.878;2023-10-31T06:30:38;10.88;;;2.20;;
75941;SDS011;64622;46.220;19.878;2023-10-31T06:33:05;8.70;;;2.10;;
75941;SDS011;64622;46.220;19.878;2023-10-31T06:35:33;6.72;;;1.77;;
75941;SDS011;64622;46.220;19.878;2023-10-31T06:38:00;5.87;;;1.80;;
75941;SDS011;64622;46.220;19.878;2023-10-31T06:40:28;7.70;;;1.60;;
75941;SDS011;64622;46.220;19.878;2023-10-31T06:42:54;6.40;;;2.08;;
75941;SDS011;64622;46.220;19.878;2023-10-31T06:45:21;10.95;;;2.25;;
75941;SDS011;64622;46.220;19.878;2023-10-31T06:47:48;7.55;;;2.33;;
75941;SDS011;64622;46.220;19.878;2023-10-31T06:50:14;7.63;;;2.57;;
75941;SDS011;64622;46.220;19.878;2023-10-31T06:52:41;7.20;;;2.25;;
75941;SDS011;64622;46.220;19.878;2023-10-31T06:55:08;9.65;;;2.28;;
75941;SDS011;64622;46.220;19.878;2023-10-31T06:57:35;7.90;;;2.15;;
75941;SDS011;64622;46.220;19.878;2023-10-31T07:00:02;9.15;;;2.35;;
75941;SDS011;64622;46.220;19.878;2023-10-31T07:02:30;6.43;;;1.90;;
75941;SDS011;64622;46.220;19.878;2023-10-31T07:04:56;6.72;;;2.00;;
75941;SDS011;64622;46.220;19.878;2023-10-31T07:07:23;8.27;;;2.10;;
75941;SDS011;64622;46.220;19.878;2023-10-31T07:09:50;8.15;;;2.10;;
75941;SDS011;64622;46.220;19.878;2023-10-31T07:12:17;7.47;;;2.17;;
75941;SDS011;64622;46.220;19.878;2023-10-31T07:14:43;7.77;;;1.93;;
75941;SDS011;64622;46.220;19.878;2023-10-31T07:17:10;7.15;;;2.00;;
75941;SDS011;64622;46.220;19.878;2023-10-31T07:19:36;6.37;;;1.87;;
75941;SDS011;64622;46.220;19.878;2023-10-31T07:22:03;7.05;;;2.00;;
75941;SDS011;64622;46.220;19.878;2023-10-31T07:24:30;8.05;;;1.80;;
75941;SDS011;64622;46.220;19.878;2023-10-31T07:26:57;6.80;;;1.97;;
75941;SDS011;64622;46.220;19.878;2023-10-31T07:29:23;8.85;;;2.20;;
75941;SDS011;64622;46.220;19.878;2023-10-31T07:31:50;10.35;;;2.00;;
75941;SDS011;64622;46.220;19.878;2023-10-31T07:34:17;6.32;;;1.62;;
75941;SDS011;64622;46.220;19.878;2023-10-31T07:36:44;10.05;;;2.05;;
75941;SDS011;64622;46.220;19.878;2023-10-31T07:39:11;8.90;;;2.07;;
75941;SDS011;64622;46.220;19.878;2023-10-31T07:41:38;6.90;;;2.25;;
75941;SDS011;64622;46.220;19.878;2023-10-31T07:44:08;7.47;;;1.77;;
75941;SDS011;64622;46.220;19.878;2023-10-31T07:46:36;10.63;;;2.12;;
75941;SDS011;64622;46.220;19.878;2023-10-31T07:49:02;5.85;;;1.52;;
75941;SDS011;64622;46.220;19.878;2023-10-31T07:51:31;6.67;;;1.70;;
75941;SDS011;64622;46.220;19.878;2023-10-31T07:53:58;7.28;;;2.10;;
75941;SDS011;64622;46.220;19.878;2023-10-31T07:56:25;9.50;;;2.00;;
75941;SDS011;64622;46.220;19.878;2023-10-31T07:58:52;8.27;;;1.83;;
75941;SDS011;64622;46.220;19.878;2023-10-31T08:01:19;6.87;;;1.98;;
75941;SDS011;64622;46.220;19.878;2023-10-31T08:03:46;8.13;;;2.10;;
75941;SDS011;64622;46.220;19.878;2023-10-31T08:06:14;10.02;;;2.00;;
75941;SDS011;64622;46.220;19.878;2023-10-31T08:08:40;6.15;;;1.65;;
75941;SDS011;64622;46.220;19.878;2023-10-31T08:11:07;8.93;;;1.65;;
75941;SDS011;64622;46.220;19.878;2023-10-31T08:13:36;7.32;;;1.60;;
75941;SDS011;64622;46.220;19.878;2023-10-31T08:16:07;8.43;;;2.60;;
75941;SDS011;64622;46.220;19.878;2023-10-31T08:18:34;8.52;;;1.95;;
75941;SDS011;64622;46.220;19.878;2023-10-31T08:21:02;7.43;;;1.73;;
75941;SDS011;64622;46.220;19.878;2023-10-31T08:23:30;6.55;;;1.37;;
75941;SDS011;64622;46.220;19.878;2023-10-31T08:25:56;7.22;;;1.67;;
75941;SDS011;64622;46.220;19.878;2023-10-31T08:28:23;7.13;;;1.87;;
75941;SDS011;64622;46.220;19.878;2023-10-31T08:30:50;6.65;;;1.52;;
75941;SDS011;64622;46.220;19.878;2023-10-31T08:33:17;6.28;;;1.58;;
75941;SDS011;64622;46.220;19.878;2023-10-31T08:35:44;6.03;;;1.70;;
75941;SDS011;64622;46.220;19.878;2023-10-31T08:38:10;8.00;;;1.80;;
75941;SDS011;64622;46.220;19.878;2023-10-31T08:40:37;8.97;;;2.00;;
75941;SDS011;64622;46.220;19.878;2023-10-31T08:43:04;6.18;;;1.40;;
75941;SDS011;64622;46.220;19.878;2023-10-31T08:45:32;9.65;;;2.08;;
75941;SDS011;64622;46.220;19.878;2023-10-31T08:48:00;10.05;;;1.75;;
75941;SDS011;64622;46.220;19.878;2023-10-31T08:50:27;7.35;;;1.83;;
75941;SDS011;64622;46.220;19.878;2023-10-31T08:52:54;9.73;;;1.37;;
75941;SDS011;64622;46.220;19.878;2023-10-31T08:55:21;11.00;;;1.80;;
75941;SDS011;64622;46.220;19.878;2023-10-31T08:57:48;8.00;;;1.50;;
75941;SDS011;64622;46.220;19.878;2023-10-31T09:00:14;4.35;;;1.30;;
75941;SDS011;64622;46.220;19.878;2023-10-31T09:02:42;6.25;;;1.52;;
75941;SDS011;64622;46.220;19.878;2023-10-31T09:05:09;7.27;;;1.80;;
75941;SDS011;64622;46.220;19.878;2023-10-31T09:07:36;6.57;;;1.65;;
75941;SDS011;64622;46.220;19.878;2023-10-31T09:10:02;6.22;;;1.52;;
75941;SDS011;64622;46.220;19.878;2023-10-31T09:12:31;6.95;;;1.52;;
75941;SDS011;64622;46.220;19.878;2023-10-31T09:14:58;6.40;;;1.45;;
75941;SDS011;64622;46.220;19.878;2023-10-31T09:17:25;5.73;;;1.20;;
75941;SDS011;64622;46.220;19.878;2023-10-31T09:19:51;9.52;;;1.55;;
75941;SDS011;64622;46.220;19.878;2023-10-31T09:22:20;6.53;;;1.60;;
75941;SDS011;64622;46.220;19.878;2023-10-31T09:24:46;7.97;;;1.60;;
75941;SDS011;64622;46.220;19.878;2023-10-31T09:27:14;5.45;;;1.20;;
75941;SDS011;64622;46.220;19.878;2023-10-31T09:29:40;6.33;;;1.30;;
75941;SDS011;64622;46.220;19.878;2023-10-31T09:32:07;12.15;;;3.83;;
75941;SDS011;64622;46.220;19.878;2023-10-31T09:34:35;5.85;;;1.50;;
75941;SDS011;64622;46.220;19.878;2023-10-31T09:37:02;6.12;;;1.50;;
75941;SDS011;64622;46.220;19.878;2023-10-31T09:39:29;6.28;;;1.62;;
75941;SDS011;64622;46.220;19.878;2023-10-31T09:41:56;8.43;;;1.77;;
75941;SDS011;64622;46.220;19.878;2023-10-31T09:44:23;6.47;;;1.58;;
75941;SDS011;64622;46.220;19.878;2023-10-31T09:46:51;6.82;;;1.60;;
75941;SDS011;64622;46.220;19.878;2023-10-31T09:49:19;8.93;;;1.50;;
75941;SDS011;64622;46.220;19.878;2023-10-31T09:51:46;7.40;;;1.35;;
75941;SDS011;64622;46.220;19.878;2023-10-31T09:54:16;8.10;;;1.40;;
75941;SDS011;64622;46.220;19.878;2023-10-31T09:56:43;8.07;;;1.45;;
75941;SDS011;64622;46.220;19.878;2023-10-31T09:59:10;8.52;;;2.42;;
75941;SDS011;64622;46.220;19.878;2023-10-31T10:01:38;6.85;;;1.70;;
75941;SDS011;64622;46.220;19.878;2023-10-31T10:04:05;7.40;;;2.47;;
75941;SDS011;64622;46.220;19.878;2023-10-31T10:06:32;9.90;;;2.27;;
75941;SDS011;64622;46.220;19.878;2023-10-31T10:08:58;8.07;;;1.87;;
75941;SDS011;64622;46.220;19.878;2023-10-31T10:11:26;8.02;;;1.80;;
75941;SDS011;64622;46.220;19.878;2023-10-31T10:13:54;9.20;;;1.60;;
75941;SDS011;64622;46.220;19.878;2023-10-31T10:16:31;9.18;;;1.90;;
75941;SDS011;64622;46.220;19.878;2023-10-31T10:19:14;7.23;;;1.87;;
75941;SDS011;64622;46.220;19.878;2023-10-31T10:21:46;7.05;;;1.80;;
75941;SDS011;64622;46.220;19.878;2023-10-31T10:24:21;6.80;;;1.80;;
75941;SDS011;64622;46.220;19.878;2023-10-31T10:26:48;9.77;;;2.03;;
75941;SDS011;64622;46.220;19.878;2023-10-31T10:29:16;7.57;;;1.87;;
75941;SDS011;64622;46.220;19.878;2023-10-31T10:31:44;7.70;;;1.80;;
75941;SDS011;64622;46.220;19.878;2023-10-31T10:34:13;5.78;;;1.70;;
75941;SDS011;64622;46.220;19.878;2023-10-31T10:36:43;7.03;;;1.95;;
75941;SDS011;64622;46.220;19.878;2023-10-31T10:39:13;7.87;;;2.00;;
75941;SDS011;64622;46.220;19.878;2023-10-31T10:41:55;8.15;;;2.00;;
75941;SDS011;64622;46.220;19.878;2023-10-31T10:44:27;7.63;;;1.77;;
75941;SDS011;64622;46.220;19.878;2023-10-31T10:47:01;8.15;;;1.65;;
75941;SDS011;64622;46.220;19.878;2023-10-31T10:49:36;7.97;;;1.90;;
75941;SDS011;64622;46.220;19.878;2023-10-31T10:54:51;9.60;;;2.90;;
75941;SDS011;64622;46.220;19.878;2023-10-31T10:57:32;8.90;;;1.80;;
75941;SDS011;64622;46.220;19.878;2023-10-31T11:00:06;8.00;;;1.67;;
75941;SDS011;64622;46.220;19.878;2023-10-31T11:02:39;13.07;;;2.05;;
75941;SDS011;64622;46.220;19.878;2023-10-31T11:05:10;7.70;;;1.65;;
75941;SDS011;64622;46.220;19.878;2023-10-31T11:07:37;9.80;;;2.10;;
75941;SDS011;64622;46.220;19.878;2023-10-31T11:10:05;6.60;;;2.00;;
75941;SDS011;64622;46.220;19.878;2023-10-31T11:12:33;7.53;;;2.25;;
75941;SDS011;64622;46.220;19.878;2023-10-31T11:14:59;8.75;;;2.00;;
75941;SDS011;64622;46.220;19.878;2023-10-31T11:17:32;7.00;;;2.03;;
75941;SDS011;64622;46.220;19.878;2023-10-31T11:20:01;11.32;;;3.15;;
75941;SDS011;64622;46.220;19.878;2023-10-31T11:22:43;9.73;;;2.60;;
75941;SDS011;64622;46.220;19.878;2023-10-31T11:25:12;9.75;;;2.05;;
75941;SDS011;64622;46.220;19.878;2023-10-31T11:27:40;9.40;;;1.95;;
75941;SDS011;64622;46.220;19.878;2023-10-31T11:30:08;9.32;;;2.70;;
75941;SDS011;64622;46.220;19.878;2023-10-31T11:32:51;7.30;;;1.80;;
75941;SDS011;64622;46.220;19.878;2023-10-31T11:35:19;7.03;;;1.70;;
75941;SDS011;64622;46.220;19.878;2023-10-31T11:37:47;6.00;;;1.58;;
75941;SDS011;64622;46.220;19.878;2023-10-31T11:40:17;6.37;;;1.55;;
75941;SDS011;64622;46.220;19.878;2023-10-31T11:42:49;13.25;;;1.92;;
75941;SDS011;64622;46.220;19.878;2023-10-31T11:45:51;7.22;;;1.65;;
75941;SDS011;64622;46.220;19.878;2023-10-31T11:48:13;7.43;;;1.87;;
75941;SDS011;64622;46.220;19.878;2023-10-31T11:50:41;9.07;;;2.42;;
75941;SDS011;64622;46.220;19.878;2023-10-31T11:53:12;7.35;;;1.37;;
75941;SDS011;64622;46.220;19.878;2023-10-31T11:55:43;6.82;;;1.50;;
75941;SDS011;64622;46.220;19.878;2023-10-31T12:00:42;6.20;;;1.50;;
75941;SDS011;64622;46.220;19.878;2023-10-31T12:03:11;6.78;;;1.37;;
75941;SDS011;64622;46.220;19.878;2023-10-31T12:05:39;7.35;;;1.60;;
75941;SDS011;64622;46.220;19.878;2023-10-31T12:08:05;8.05;;;1.48;;
75941;SDS011;64622;46.220;19.878;2023-10-31T12:10:33;11.68;;;1.85;;
75941;SDS011;64622;46.220;19.878;2023-10-31T12:12:59;8.50;;;1.80;;
75941;SDS011;64622;46.220;19.878;2023-10-31T12:15:26;7.12;;;1.87;;
75941;SDS011;64622;46.220;19.878;2023-10-31T12:17:57;8.40;;;1.42;;
75941;SDS011;64622;46.220;19.878;2023-10-31T12:20:25;7.32;;;2.00;;
75941;SDS011;64622;46.220;19.878;2023-10-31T12:25:29;7.97;;;2.40;;
75941;SDS011;64622;46.220;19.878;2023-10-31T12:27:59;8.25;;;2.05;;
75941;SDS011;64622;46.220;19.878;2023-10-31T12:30:25;10.57;;;2.97;;
75941;SDS011;64622;46.220;19.878;2023-10-31T12:32:53;8.70;;;2.10;;
75941;SDS011;64622;46.220;19.878;2023-10-31T12:35:22;10.15;;;2.15;;
75941;SDS011;64622;46.220;19.878;2023-10-31T12:37:50;11.83;;;2.10;;
75941;SDS011;64622;46.220;19.878;2023-10-31T12:40:18;8.27;;;1.50;;
75941;SDS011;64622;46.220;19.878;2023-10-31T12:42:46;7.70;;;1.70;;
75941;SDS011;64622;46.220;19.878;2023-10-31T12:45:14;6.75;;;1.62;;
75941;SDS011;64622;46.220;19.878;2023-10-31T12:47:43;11.10;;;2.10;;
75941;SDS011;64622;46.220;19.878;2023-10-31T12:50:14;10.80;;;3.63;;
75941;SDS011;64622;46.220;19.878;2023-10-31T12:52:48;9.63;;;1.92;;
75941;SDS011;64622;46.220;19.878;2023-10-31T12:55:15;8.45;;;1.62;;
75941;SDS011;64622;46.220;19.878;2023-10-31T12:57:43;10.20;;;2.08;;
75941;SDS011;64622;46.220;19.878;2023-10-31T13:00:10;7.30;;;1.70;;
75941;SDS011;64622;46.220;19.878;2023-10-31T13:02:39;7.97;;;1.83;;
75941;SDS011;64622;46.220;19.878;2023-10-31T13:07:37;9.93;;;2.17;;
75941;SDS011;64622;46.220;19.878;2023-10-31T13:10:04;11.73;;;1.87;;
75941;SDS011;64622;46.220;19.878;2023-10-31T13:12:32;9.30;;;1.87;;
75941;SDS011;64622;46.220;19.878;2023-10-31T13:14:59;6.70;;;1.70;;
75941;SDS011;64622;46.220;19.878;2023-10-31T13:17:27;7.82;;;1.75;;
75941;SDS011;64622;46.220;19.878;2023-10-31T13:19:54;9.25;;;2.05;;
75941;SDS011;64622;46.220;19.878;2023-10-31T13:22:21;7.28;;;1.92;;
75941;SDS011;64622;46.220;19.878;2023-10-31T13:24:48;12.73;;;2.22;;
75941;SDS011;64622;46.220;19.878;2023-10-31T13:27:15;15.40;;;3.20;;
75941;SDS011;64622;46.220;19.878;2023-10-31T13:29:43;8.85;;;2.25;;
75941;SDS011;64622;46.220;19.878;2023-10-31T13:32:12;9.20;;;2.42;;
75941;SDS011;64622;46.220;19.878;2023-10-31T13:34:38;9.77;;;2.55;;
75941;SDS011;64622;46.220;19.878;2023-10-31T13:37:05;6.62;;;1.67;;
75941;SDS011;64622;46.220;19.878;2023-10-31T13:39:34;6.07;;;1.90;;
75941;SDS011;64622;46.220;19.878;2023-10-31T13:42:01;3.53;;;0.93;;
75941;SDS011;64622;46.220;19.878;2023-10-31T13:44:28;7.32;;;1.02;;
75941;SDS011;64622;46.220;19.878;2023-10-31T13:46:55;3.65;;;1.08;;
75941;SDS011;64622;46.220;19.878;2023-10-31T13:49:22;3.70;;;0.52;;
75941;SDS011;64622;46.220;19.878;2023-10-31T13:51:49;2.67;;;0.50;;
75941;SDS011;64622;46.220;19.878;2023-10-31T13:54:16;1.65;;;0.30;;
75941;SDS011;64622;46.220;19.878;2023-10-31T13:56:42;3.33;;;0.50;;
75941;SDS011;64622;46.220;19.878;2023-10-31T13:59:09;1.67;;;0.30;;
75941;SDS011;64622;46.220;19.878;2023-10-31T14:01:36;2.65;;;0.50;;
75941;SDS011;64622;46.220;19.878;2023-10-31T14:04:03;2.67;;;0.40;;
75941;SDS011;64622;46.220;19.878;2023-10-31T14:06:30;2.25;;;0.40;;
75941;SDS011;64622;46.220;19.878;2023-10-31T14:08:59;1.98;;;0.30;;
75941;SDS011;64622;46.220;19.878;2023-10-31T14:11:27;3.17;;;0.50;;
75941;SDS011;64622;46.220;19.878;2023-10-31T14:13:54;1.27;;;0.30;;
75941;SDS011;64622;46.220;19.878;2023-10-31T14:16:21;2.03;;;0.20;;
75941;SDS011;64622;46.220;19.878;2023-10-31T14:18:48;1.50;;;0.30;;
75941;SDS011;64622;46.220;19.878;2023-10-31T14:21:15;2.22;;;0.30;;
75941;SDS011;64622;46.220;19.878;2023-10-31T14:23:42;1.62;;;0.30;;
75941;SDS011;64622;46.220;19.878;2023-10-31T14:26:09;1.95;;;0.30;;
75941;SDS011;64622;46.220;19.878;2023-10-31T14:28:35;3.07;;;0.30;;
75941;SDS011;64622;46.220;19.878;2023-10-31T14:31:02;3.17;;;0.43;;
75941;SDS011;64622;46.220;19.878;2023-10-31T14:33:29;4.40;;;0.55;;
75941;SDS011;64622;46.220;19.878;2023-10-31T14:35:57;1.85;;;0.32;;
75941;SDS011;64622;46.220;19.878;2023-10-31T14:38:23;1.65;;;0.30;;
75941;SDS011;64622;46.220;19.878;2023-10-31T14:40:50;2.17;;;0.30;;
75941;SDS011;64622;46.220;19.878;2023-10-31T14:43:17;1.90;;;0.30;;
75941;SDS011;64622;46.220;19.878;2023-10-31T14:45:44;2.67;;;0.40;;
75941;SDS011;64622;46.220;19.878;2023-10-31T14:48:11;1.70;;;0.30;;